createdAt,value
2019-02-25T00:03:30.222Z,12.68
2019-02-25T00:07:34.779Z,11.70
2019-02-25T00:11:39.363Z,11.38
2019-02-25T00:15:43.911Z,11.68
2019-02-25T00:19:48.455Z,11.93
2019-02-25T00:23:53.003Z,11.68
2019-02-25T00:27:57.576Z,11.20
2019-02-25T00:32:02.134Z,11.93
2019-02-25T00:36:06.754Z,11.48
2019-02-25T00:40:11.300Z,11.88
2019-02-25T00:44:15.869Z,11.33
2019-02-25T00:48:20.442Z,12.33
2019-02-25T00:52:24.982Z,11.33
2019-02-25T00:56:29.540Z,11.48
2019-02-25T01:00:34.060Z,11.30
2019-02-25T01:04:38.618Z,11.85
2019-02-25T01:08:43.221Z,12.05
2019-02-25T01:12:48.041Z,11.65
2019-02-25T01:16:52.613Z,12.47
2019-02-25T01:20:57.136Z,11.68
2019-02-25T01:25:01.683Z,8.80
2019-02-25T01:29:06.251Z,9.57
2019-02-25T01:33:10.774Z,8.97
2019-02-25T01:37:15.339Z,9.83
2019-02-25T01:41:19.866Z,9.67
2019-02-25T01:45:24.438Z,9.23
2019-02-25T01:49:29.007Z,9.40
2019-02-25T01:59:36.175Z,8.00
2019-02-25T02:05:58.730Z,8.90
2019-02-25T02:10:03.311Z,8.53
2019-02-25T02:14:07.864Z,8.87
2019-02-25T02:18:12.435Z,9.17
2019-02-25T02:22:17.287Z,8.57
2019-02-25T02:30:27.307Z,9.37
2019-02-25T02:34:31.889Z,9.40
2019-02-25T02:38:36.472Z,9.93
2019-02-25T02:42:42.393Z,9.30
2019-02-25T02:47:14.302Z,9.07
2019-02-25T02:51:18.852Z,8.70
2019-02-25T02:55:23.395Z,9.03
2019-02-25T03:02:59.550Z,9.83
2019-02-25T03:10:19.585Z,9.93
2019-02-25T03:14:24.093Z,9.63
2019-02-25T03:18:28.620Z,9.37
2019-02-25T03:29:22.519Z,9.27
2019-02-25T03:33:27.062Z,10.23
2019-02-25T03:37:31.628Z,9.63
2019-02-25T03:42:16.467Z,10.30
2019-02-25T03:46:21.055Z,12.80
2019-02-25T03:50:25.602Z,13.37
2019-02-25T03:54:30.104Z,12.60
2019-02-25T03:58:34.644Z,9.40
2019-02-25T04:02:39.180Z,9.90
2019-02-25T04:09:27.235Z,9.13
2019-02-25T04:13:31.791Z,9.10
2019-02-25T04:17:36.339Z,9.17
2019-02-25T04:24:43.069Z,9.13
2019-02-25T04:35:08.283Z,9.53
2019-02-25T04:39:12.837Z,12.13
2019-02-25T04:44:36.343Z,10.07
2019-02-25T04:51:25.632Z,10.23
2019-02-25T04:55:30.130Z,9.90
2019-02-25T04:59:34.672Z,9.70
2019-02-25T05:03:39.315Z,10.00
2019-02-25T05:07:43.880Z,9.93
2019-02-25T05:11:48.461Z,10.80
2019-02-25T05:15:52.975Z,10.37
2019-02-25T05:19:57.544Z,12.80
2019-02-25T05:24:02.277Z,13.55
2019-02-25T05:28:06.813Z,12.70
2019-02-25T05:32:11.367Z,12.93
2019-02-25T05:36:15.942Z,12.68
2019-02-25T05:40:20.520Z,12.78
2019-02-25T05:44:25.069Z,12.60
2019-02-25T05:48:29.608Z,13.25
2019-02-25T05:52:34.147Z,13.67
2019-02-25T05:56:38.637Z,12.97
2019-02-25T06:00:43.199Z,13.18
2019-02-25T06:04:47.771Z,12.00
2019-02-25T06:08:52.404Z,11.00
2019-02-25T06:12:56.992Z,11.30
2019-02-25T06:17:01.636Z,11.65
2019-02-25T06:21:06.275Z,11.12
2019-02-25T06:25:11.248Z,11.15
2019-02-25T06:29:15.821Z,11.57
2019-02-25T06:33:20.388Z,10.95
2019-02-25T06:37:24.893Z,10.93
2019-02-25T06:41:29.445Z,11.40
2019-02-25T06:45:33.993Z,11.50
2019-02-25T06:49:38.565Z,10.90
2019-02-25T06:53:43.145Z,11.03
2019-02-25T06:57:47.699Z,10.45
2019-02-25T07:01:52.258Z,10.95
2019-02-25T07:06:09.323Z,11.63
2019-02-25T07:10:32.244Z,11.28
2019-02-25T07:14:55.719Z,10.20
2019-02-25T07:19:25.164Z,9.67
2019-02-25T07:23:48.640Z,9.07
2019-02-25T07:35:05.268Z,10.13
2019-02-25T07:39:18.080Z,12.37
2019-02-25T07:43:30.515Z,12.07
2019-02-25T07:47:56.928Z,12.15
2019-02-25T07:52:16.536Z,9.43
2019-02-25T07:56:58.043Z,9.73
2019-02-25T08:03:08.248Z,9.47
2019-02-25T08:07:46.852Z,9.93
2019-02-25T08:14:02.138Z,10.40
2019-02-25T08:19:34.252Z,9.20
2019-02-25T08:23:57.767Z,8.73
2019-02-25T08:30:41.016Z,8.17
2019-02-25T08:38:37.906Z,8.00
2019-02-25T08:43:01.551Z,10.27
2019-02-25T08:49:43.112Z,9.90
2019-02-25T08:53:47.652Z,8.67
2019-02-25T08:57:52.188Z,8.20
2019-02-25T09:04:20.299Z,8.37
2019-02-25T09:15:03.700Z,7.27
2019-02-25T09:19:08.224Z,7.80
2019-02-25T09:23:12.771Z,7.30
2019-02-25T09:27:51.153Z,6.80
2019-02-25T09:31:55.719Z,7.50
2019-02-25T09:36:00.248Z,6.10
2019-02-25T09:40:05.471Z,6.80
2019-02-25T09:44:10.002Z,7.57
2019-02-25T09:50:32.643Z,7.50
2019-02-25T09:54:37.147Z,7.20
2019-02-25T09:58:41.700Z,7.50
2019-02-25T10:06:42.135Z,7.20
2019-02-25T10:10:46.719Z,8.13
2019-02-25T10:14:51.252Z,7.43
2019-02-25T10:18:55.793Z,6.97
2019-02-25T10:23:00.412Z,7.70
2019-02-25T10:27:04.933Z,9.00
2019-02-25T10:34:01.485Z,9.80
2019-02-25T10:38:06.127Z,8.77
2019-02-25T10:42:10.696Z,8.17
2019-02-25T10:46:17.206Z,10.05
2019-02-25T10:50:21.484Z,25.80
2019-02-25T10:54:26.043Z,11.15
2019-02-25T10:58:31.195Z,10.13
2019-02-25T11:02:44.054Z,10.80
2019-02-25T11:06:42.983Z,10.03
2019-02-25T11:11:01.000Z,10.13
2019-02-25T11:15:07.405Z,10.95
2019-02-25T11:19:12.354Z,9.45
2019-02-25T11:23:17.679Z,17.55
2019-02-25T11:27:23.076Z,9.88
2019-02-25T11:31:29.160Z,9.20
2019-02-25T11:35:34.279Z,8.80
2019-02-25T11:39:39.026Z,9.20
2019-02-25T11:43:45.689Z,9.95
2019-02-25T11:47:49.852Z,9.85
2019-02-25T11:51:54.358Z,10.32
2019-02-25T11:55:58.882Z,9.98
2019-02-25T12:00:03.535Z,11.40
2019-02-25T12:04:08.092Z,10.90
2019-02-25T12:08:12.663Z,11.22
2019-02-25T12:12:17.192Z,10.55
2019-02-25T12:16:21.828Z,11.43
2019-02-25T12:20:26.456Z,10.73
2019-02-25T12:24:31.007Z,10.53
2019-02-25T12:31:09.387Z,11.03
2019-02-25T12:35:14.143Z,10.93
2019-02-25T12:39:18.704Z,10.93
2019-02-25T12:43:23.384Z,10.80
2019-02-25T12:47:27.899Z,11.48
2019-02-25T12:51:32.461Z,11.38
2019-02-25T12:55:37.377Z,10.17
2019-02-25T12:59:41.916Z,10.93
2019-02-25T13:03:46.524Z,10.80
2019-02-25T13:07:51.037Z,10.00
2019-02-25T13:11:55.612Z,10.57
2019-02-25T13:16:00.164Z,11.00
2019-02-25T13:20:05.250Z,10.83
2019-02-25T13:24:09.983Z,11.50
2019-02-25T13:28:14.489Z,10.97
2019-02-25T13:32:19.019Z,11.07
2019-02-25T13:36:23.648Z,10.57
2019-02-25T13:40:28.180Z,10.57
2019-02-25T13:44:32.698Z,10.93
2019-02-25T13:48:37.244Z,11.43
2019-02-25T13:52:47.848Z,11.57
2019-02-25T13:56:47.998Z,10.57
2019-02-25T14:00:52.555Z,9.73
2019-02-25T14:04:57.093Z,9.90
2019-02-25T14:09:01.614Z,7.50
2019-02-25T14:13:06.160Z,8.47
2019-02-25T14:17:10.699Z,9.73
2019-02-25T14:21:16.782Z,9.90
2019-02-25T14:25:22.972Z,9.33
2019-02-25T14:29:27.519Z,10.60
2019-02-25T14:33:35.594Z,10.87
2019-02-25T14:37:38.222Z,10.80
2019-02-25T14:41:42.763Z,11.23
2019-02-25T14:45:51.775Z,11.50
2019-02-25T14:49:53.499Z,11.27
2019-02-25T14:53:57.994Z,11.10
2019-02-25T14:58:04.804Z,10.67
2019-02-25T15:02:10.628Z,12.57
2019-02-25T15:06:15.191Z,10.83
2019-02-25T15:10:19.790Z,11.70
2019-02-25T15:14:24.275Z,12.23
2019-02-25T15:18:30.755Z,12.10
2019-02-25T15:22:36.278Z,13.00
2019-02-25T15:26:43.230Z,10.53
2019-02-25T15:30:47.642Z,10.63
2019-02-25T15:34:52.833Z,12.70
2019-02-25T15:38:58.422Z,12.82
2019-02-25T15:43:15.065Z,11.20
2019-02-25T15:47:19.187Z,10.07
2019-02-25T15:51:23.725Z,11.13
2019-02-25T15:55:28.250Z,10.10
2019-02-25T15:59:32.781Z,11.80
2019-02-25T16:03:38.815Z,11.70
2019-02-25T16:07:44.214Z,11.40
2019-02-25T16:11:49.284Z,11.17
2019-02-25T16:15:54.031Z,10.83
2019-02-25T16:19:58.564Z,11.33
2019-02-25T16:24:06.368Z,11.53
2019-02-25T16:28:10.477Z,11.73
2019-02-25T16:32:16.970Z,12.20
2019-02-25T16:36:23.597Z,10.90
2019-02-25T16:40:29.134Z,11.63
2019-02-25T16:44:34.013Z,12.33
2019-02-25T16:48:38.569Z,11.63
2019-02-25T16:52:45.541Z,11.23
2019-02-25T16:56:50.294Z,9.90
2019-02-25T17:00:58.079Z,11.53
2019-02-25T17:05:01.012Z,11.70
2019-02-25T17:09:06.823Z,10.30
2019-02-25T17:13:13.084Z,10.80
2019-02-25T17:17:17.626Z,9.03
2019-02-25T17:21:22.168Z,11.77
2019-02-25T17:27:59.565Z,12.30
2019-02-25T17:32:04.559Z,11.60
2019-02-25T17:36:12.215Z,12.00
2019-02-25T17:42:33.538Z,10.57
2019-02-25T17:46:39.138Z,11.03
2019-02-25T17:50:44.189Z,11.40
2019-02-25T17:55:11.060Z,9.27
2019-02-25T17:59:16.729Z,11.30
2019-02-25T18:03:21.876Z,9.87
2019-02-25T18:07:27.504Z,10.40
2019-02-25T18:11:32.059Z,11.83
2019-02-25T18:15:36.838Z,12.40
2019-02-25T18:19:41.818Z,12.40
2019-02-25T18:23:49.410Z,15.03
2019-02-25T18:27:54.014Z,14.40
2019-02-25T18:31:58.889Z,15.10
2019-02-25T18:36:04.461Z,15.78
2019-02-25T18:40:11.728Z,14.85
2019-02-25T18:44:16.664Z,13.85
2019-02-25T18:48:22.800Z,14.10
2019-02-25T18:52:29.444Z,16.20
2019-02-25T18:56:34.164Z,18.60
2019-02-25T19:00:42.591Z,18.65
2019-02-25T19:04:47.007Z,19.95
2019-02-25T19:08:53.462Z,16.55
2019-02-25T19:12:59.180Z,18.32
2019-02-25T19:17:06.563Z,14.43
2019-02-25T19:21:11.307Z,12.40
2019-02-25T19:25:18.257Z,13.13
2019-02-25T19:29:24.395Z,15.10
2019-02-25T19:33:31.334Z,12.40
2019-02-25T19:37:38.240Z,14.03
2019-02-25T19:41:45.101Z,16.02
2019-02-25T19:45:48.789Z,15.10
2019-02-25T19:49:53.367Z,16.45
2019-02-25T19:53:59.879Z,16.90
2019-02-25T19:58:04.227Z,15.03
2019-02-25T20:02:08.807Z,15.27
2019-02-25T20:06:15.898Z,16.23
2019-02-25T20:10:19.584Z,14.60
2019-02-25T20:14:24.432Z,15.58
2019-02-25T20:18:28.940Z,16.75
2019-02-25T20:22:34.545Z,15.43
2019-02-25T20:26:39.776Z,17.30
2019-02-25T20:30:44.723Z,17.03
2019-02-25T20:34:50.714Z,16.37
2019-02-25T20:38:56.233Z,16.82
2019-02-25T20:43:02.875Z,16.93
2019-02-25T20:47:07.003Z,16.00
2019-02-25T20:51:11.980Z,16.85
2019-02-25T20:55:16.642Z,16.75
2019-02-25T20:59:21.901Z,14.50
2019-02-25T21:03:27.706Z,17.30
2019-02-25T21:07:33.942Z,16.77
2019-02-25T21:11:38.598Z,15.95
2019-02-25T21:15:45.293Z,16.57
2019-02-25T21:19:49.340Z,16.65
2019-02-25T21:23:53.911Z,16.15
2019-02-25T21:27:59.920Z,15.65
2019-02-25T21:32:04.675Z,15.30
2019-02-25T21:36:09.203Z,14.73
2019-02-25T21:40:15.518Z,15.47
2019-02-25T21:44:21.345Z,15.30
2019-02-25T21:48:27.483Z,15.15
2019-02-25T21:52:32.894Z,16.75
2019-02-25T21:56:38.793Z,17.15
2019-02-25T22:00:43.315Z,17.23
2019-02-25T22:04:49.699Z,16.45
2019-02-25T22:08:55.963Z,15.13
2019-02-25T22:13:04.390Z,16.42
2019-02-25T22:17:06.523Z,13.55
2019-02-25T22:21:12.232Z,16.25
2019-02-25T22:25:17.913Z,16.80
2019-02-25T22:29:22.590Z,17.55
2019-02-25T22:33:28.043Z,16.80
2019-02-25T22:37:33.371Z,17.73
2019-02-25T22:41:37.906Z,17.23
2019-02-25T22:45:42.424Z,18.95
2019-02-25T22:49:46.988Z,17.48
2019-02-25T22:53:51.529Z,14.60
2019-02-25T22:57:56.096Z,15.25
2019-02-25T23:02:00.652Z,16.55
2019-02-25T23:06:05.258Z,16.85
2019-02-25T23:10:12.541Z,18.00
2019-02-25T23:14:17.927Z,17.37
2019-02-25T23:18:25.191Z,17.60
2019-02-25T23:22:30.111Z,18.23
2019-02-25T23:26:34.768Z,18.85
2019-02-25T23:30:39.806Z,15.23
2019-02-25T23:34:44.904Z,17.40
2019-02-25T23:38:52.417Z,16.77
2019-02-25T23:42:56.807Z,13.23
2019-02-25T23:47:02.106Z,10.93
2019-02-25T23:51:07.496Z,11.67
2019-02-25T23:55:14.628Z,10.53
2019-02-25T23:59:19.985Z,11.77
